sensor_id;sensor_type;location;lat;lon;timestamp;P1;durP1;ratioP1;P2;durP2;ratioP2
70169;SDS011;57543;45.442;9.212;2023-01-08T00:00:51;59.22;;;19.33;;
70169;SDS011;57543;45.442;9.212;2023-01-08T00:03:54;55.10;;;18.03;;
70169;SDS011;57543;45.442;9.212;2023-01-08T00:06:58;54.75;;;17.60;;
70169;SDS011;57543;45.442;9.212;2023-01-08T00:10:01;54.30;;;17.90;;
70169;SDS011;57543;45.442;9.212;2023-01-08T00:13:05;59.95;;;19.17;;
70169;SDS011;57543;45.442;9.212;2023-01-08T00:16:11;54.97;;;18.40;;
70169;SDS011;57543;45.442;9.212;2023-01-08T00:19:18;66.30;;;19.73;;
70169;SDS011;57543;45.442;9.212;2023-01-08T00:22:22;60.38;;;18.67;;
70169;SDS011;57543;45.442;9.212;2023-01-08T00:25:25;60.17;;;19.30;;
70169;SDS011;57543;45.442;9.212;2023-01-08T00:28:29;65.15;;;20.27;;
70169;SDS011;57543;45.442;9.212;2023-01-08T00:31:33;62.03;;;19.45;;
70169;SDS011;57543;45.442;9.212;2023-01-08T00:34:37;55.73;;;18.37;;
70169;SDS011;57543;45.442;9.212;2023-01-08T00:37:43;57.55;;;19.23;;
70169;SDS011;57543;45.442;9.212;2023-01-08T00:40:47;63.90;;;19.17;;
70169;SDS011;57543;45.442;9.212;2023-01-08T00:43:50;61.75;;;19.45;;
70169;SDS011;57543;45.442;9.212;2023-01-08T00:46:54;60.08;;;18.98;;
70169;SDS011;57543;45.442;9.212;2023-01-08T00:49:58;55.20;;;19.97;;
70169;SDS011;57543;45.442;9.212;2023-01-08T00:53:02;64.13;;;19.70;;
70169;SDS011;57543;45.442;9.212;2023-01-08T00:56:09;59.65;;;19.65;;
70169;SDS011;57543;45.442;9.212;2023-01-08T00:59:15;56.95;;;19.52;;
70169;SDS011;57543;45.442;9.212;2023-01-08T01:02:18;59.83;;;19.65;;
70169;SDS011;57543;45.442;9.212;2023-01-08T01:05:22;52.60;;;17.77;;
70169;SDS011;57543;45.442;9.212;2023-01-08T01:08:25;53.83;;;19.17;;
70169;SDS011;57543;45.442;9.212;2023-01-08T01:11:29;49.25;;;17.40;;
70169;SDS011;57543;45.442;9.212;2023-01-08T01:14:33;51.88;;;17.80;;
70169;SDS011;57543;45.442;9.212;2023-01-08T01:17:37;45.58;;;16.75;;
70169;SDS011;57543;45.442;9.212;2023-01-08T01:20:42;40.67;;;15.73;;
70169;SDS011;57543;45.442;9.212;2023-01-08T01:23:45;42.85;;;16.88;;
70169;SDS011;57543;45.442;9.212;2023-01-08T01:26:52;45.40;;;15.95;;
70169;SDS011;57543;45.442;9.212;2023-01-08T01:29:58;45.05;;;16.00;;
70169;SDS011;57543;45.442;9.212;2023-01-08T01:33:02;47.67;;;16.70;;
70169;SDS011;57543;45.442;9.212;2023-01-08T01:36:06;45.63;;;16.50;;
70169;SDS011;57543;45.442;9.212;2023-01-08T01:39:12;45.97;;;16.00;;
70169;SDS011;57543;45.442;9.212;2023-01-08T01:42:16;45.17;;;16.60;;
70169;SDS011;57543;45.442;9.212;2023-01-08T01:45:42;41.63;;;16.23;;
70169;SDS011;57543;45.442;9.212;2023-01-08T01:48:47;46.38;;;16.63;;
70169;SDS011;57543;45.442;9.212;2023-01-08T01:51:56;50.13;;;17.17;;
70169;SDS011;57543;45.442;9.212;2023-01-08T01:55:05;48.58;;;18.17;;
70169;SDS011;57543;45.442;9.212;2023-01-08T01:58:14;47.70;;;17.27;;
70169;SDS011;57543;45.442;9.212;2023-01-08T02:01:22;46.40;;;17.10;;
70169;SDS011;57543;45.442;9.212;2023-01-08T02:04:27;48.38;;;18.23;;
70169;SDS011;57543;45.442;9.212;2023-01-08T02:08:04;45.23;;;17.07;;
70169;SDS011;57543;45.442;9.212;2023-01-08T02:11:12;44.60;;;16.70;;
70169;SDS011;57543;45.442;9.212;2023-01-08T02:14:28;50.33;;;18.10;;
70169;SDS011;57543;45.442;9.212;2023-01-08T02:17:52;43.90;;;16.83;;
70169;SDS011;57543;45.442;9.212;2023-01-08T02:21:01;44.67;;;18.13;;
70169;SDS011;57543;45.442;9.212;2023-01-08T02:27:23;43.20;;;17.65;;
70169;SDS011;57543;45.442;9.212;2023-01-08T02:30:30;46.67;;;17.42;;
70169;SDS011;57543;45.442;9.212;2023-01-08T02:33:34;42.03;;;16.83;;
70169;SDS011;57543;45.442;9.212;2023-01-08T02:36:48;43.17;;;17.05;;
70169;SDS011;57543;45.442;9.212;2023-01-08T02:39:56;44.40;;;17.07;;
70169;SDS011;57543;45.442;9.212;2023-01-08T02:43:11;47.17;;;17.38;;
70169;SDS011;57543;45.442;9.212;2023-01-08T02:46:21;45.92;;;18.17;;
70169;SDS011;57543;45.442;9.212;2023-01-08T02:49:29;43.67;;;17.08;;
70169;SDS011;57543;45.442;9.212;2023-01-08T02:52:39;45.00;;;17.27;;
70169;SDS011;57543;45.442;9.212;2023-01-08T02:55:51;48.20;;;17.97;;
70169;SDS011;57543;45.442;9.212;2023-01-08T02:59:02;41.50;;;16.67;;
70169;SDS011;57543;45.442;9.212;2023-01-08T03:02:08;40.20;;;16.58;;
70169;SDS011;57543;45.442;9.212;2023-01-08T03:05:15;42.97;;;16.38;;
70169;SDS011;57543;45.442;9.212;2023-01-08T03:08:28;49.30;;;17.52;;
70169;SDS011;57543;45.442;9.212;2023-01-08T03:11:35;44.83;;;16.73;;
70169;SDS011;57543;45.442;9.212;2023-01-08T03:14:51;45.05;;;15.98;;
70169;SDS011;57543;45.442;9.212;2023-01-08T03:17:58;45.50;;;16.73;;
70169;SDS011;57543;45.442;9.212;2023-01-08T03:21:07;46.22;;;17.42;;
70169;SDS011;57543;45.442;9.212;2023-01-08T03:24:12;49.83;;;18.08;;
70169;SDS011;57543;45.442;9.212;2023-01-08T03:27:20;44.20;;;17.83;;
70169;SDS011;57543;45.442;9.212;2023-01-08T03:30:28;40.13;;;16.50;;
70169;SDS011;57543;45.442;9.212;2023-01-08T03:33:33;48.13;;;17.90;;
70169;SDS011;57543;45.442;9.212;2023-01-08T03:36:39;48.17;;;17.20;;
70169;SDS011;57543;45.442;9.212;2023-01-08T03:39:56;44.25;;;18.20;;
70169;SDS011;57543;45.442;9.212;2023-01-08T03:43:04;44.67;;;16.33;;
70169;SDS011;57543;45.442;9.212;2023-01-08T03:46:08;51.15;;;18.52;;
70169;SDS011;57543;45.442;9.212;2023-01-08T03:49:19;47.92;;;18.73;;
70169;SDS011;57543;45.442;9.212;2023-01-08T03:52:26;51.53;;;18.10;;
70169;SDS011;57543;45.442;9.212;2023-01-08T03:55:31;48.53;;;18.45;;
70169;SDS011;57543;45.442;9.212;2023-01-08T03:58:35;52.87;;;18.10;;
70169;SDS011;57543;45.442;9.212;2023-01-08T04:01:38;51.17;;;18.17;;
70169;SDS011;57543;45.442;9.212;2023-01-08T04:04:42;53.50;;;18.38;;
70169;SDS011;57543;45.442;9.212;2023-01-08T04:07:46;48.70;;;17.55;;
70169;SDS011;57543;45.442;9.212;2023-01-08T04:10:49;52.15;;;18.08;;
70169;SDS011;57543;45.442;9.212;2023-01-08T04:13:53;45.47;;;16.83;;
70169;SDS011;57543;45.442;9.212;2023-01-08T04:16:59;42.28;;;16.55;;
70169;SDS011;57543;45.442;9.212;2023-01-08T04:20:03;46.28;;;17.90;;
70169;SDS011;57543;45.442;9.212;2023-01-08T04:23:07;48.65;;;17.10;;
70169;SDS011;57543;45.442;9.212;2023-01-08T04:26:11;52.60;;;18.65;;
70169;SDS011;57543;45.442;9.212;2023-01-08T04:29:14;47.47;;;18.37;;
70169;SDS011;57543;45.442;9.212;2023-01-08T04:32:18;48.40;;;17.67;;
70169;SDS011;57543;45.442;9.212;2023-01-08T04:35:22;52.92;;;18.00;;
70169;SDS011;57543;45.442;9.212;2023-01-08T04:38:31;53.03;;;17.38;;
70169;SDS011;57543;45.442;9.212;2023-01-08T04:41:34;50.05;;;18.50;;
70169;SDS011;57543;45.442;9.212;2023-01-08T04:44:38;48.63;;;18.40;;
70169;SDS011;57543;45.442;9.212;2023-01-08T04:47:41;48.33;;;18.10;;
70169;SDS011;57543;45.442;9.212;2023-01-08T04:50:45;49.78;;;18.73;;
70169;SDS011;57543;45.442;9.212;2023-01-08T04:53:48;49.05;;;17.48;;
70169;SDS011;57543;45.442;9.212;2023-01-08T04:56:52;49.33;;;18.17;;
70169;SDS011;57543;45.442;9.212;2023-01-08T04:59:56;48.07;;;17.07;;
70169;SDS011;57543;45.442;9.212;2023-01-08T05:03:00;52.45;;;19.08;;
70169;SDS011;57543;45.442;9.212;2023-01-08T05:06:04;46.72;;;18.30;;
70169;SDS011;57543;45.442;9.212;2023-01-08T05:09:08;50.92;;;17.92;;
70169;SDS011;57543;45.442;9.212;2023-01-08T05:12:14;48.00;;;18.42;;
70169;SDS011;57543;45.442;9.212;2023-01-08T05:15:21;46.00;;;18.13;;
70169;SDS011;57543;45.442;9.212;2023-01-08T05:18:29;50.55;;;18.10;;
70169;SDS011;57543;45.442;9.212;2023-01-08T05:21:33;45.53;;;16.85;;
70169;SDS011;57543;45.442;9.212;2023-01-08T05:24:37;49.17;;;17.80;;
70169;SDS011;57543;45.442;9.212;2023-01-08T05:27:40;52.30;;;17.67;;
70169;SDS011;57543;45.442;9.212;2023-01-08T05:30:48;46.83;;;16.70;;
70169;SDS011;57543;45.442;9.212;2023-01-08T05:33:52;51.17;;;17.95;;
70169;SDS011;57543;45.442;9.212;2023-01-08T05:36:56;52.60;;;19.88;;
70169;SDS011;57543;45.442;9.212;2023-01-08T05:39:59;47.78;;;16.95;;
70169;SDS011;57543;45.442;9.212;2023-01-08T05:43:03;52.47;;;18.67;;
70169;SDS011;57543;45.442;9.212;2023-01-08T05:46:08;48.17;;;17.33;;
70169;SDS011;57543;45.442;9.212;2023-01-08T05:49:11;50.08;;;18.10;;
70169;SDS011;57543;45.442;9.212;2023-01-08T05:52:15;49.60;;;18.67;;
70169;SDS011;57543;45.442;9.212;2023-01-08T05:55:19;51.60;;;18.55;;
70169;SDS011;57543;45.442;9.212;2023-01-08T05:58:23;55.00;;;20.00;;
70169;SDS011;57543;45.442;9.212;2023-01-08T06:01:27;52.13;;;19.80;;
70169;SDS011;57543;45.442;9.212;2023-01-08T06:04:31;54.50;;;19.20;;
70169;SDS011;57543;45.442;9.212;2023-01-08T06:07:34;46.60;;;17.45;;
70169;SDS011;57543;45.442;9.212;2023-01-08T06:10:38;46.03;;;17.80;;
70169;SDS011;57543;45.442;9.212;2023-01-08T06:13:42;51.75;;;18.38;;
70169;SDS011;57543;45.442;9.212;2023-01-08T06:16:46;48.87;;;19.20;;
70169;SDS011;57543;45.442;9.212;2023-01-08T06:19:52;52.45;;;18.17;;
70169;SDS011;57543;45.442;9.212;2023-01-08T06:22:55;52.15;;;20.42;;
70169;SDS011;57543;45.442;9.212;2023-01-08T06:25:59;46.65;;;18.83;;
70169;SDS011;57543;45.442;9.212;2023-01-08T06:29:03;51.47;;;19.27;;
70169;SDS011;57543;45.442;9.212;2023-01-08T06:32:07;51.47;;;18.87;;
70169;SDS011;57543;45.442;9.212;2023-01-08T06:35:10;49.65;;;18.42;;
70169;SDS011;57543;45.442;9.212;2023-01-08T06:38:13;52.70;;;19.90;;
70169;SDS011;57543;45.442;9.212;2023-01-08T06:41:17;56.85;;;20.05;;
70169;SDS011;57543;45.442;9.212;2023-01-08T06:44:21;48.22;;;19.35;;
70169;SDS011;57543;45.442;9.212;2023-01-08T06:47:26;53.57;;;19.60;;
70169;SDS011;57543;45.442;9.212;2023-01-08T06:50:29;52.28;;;19.73;;
70169;SDS011;57543;45.442;9.212;2023-01-08T06:53:34;56.88;;;21.58;;
70169;SDS011;57543;45.442;9.212;2023-01-08T06:56:38;53.97;;;20.38;;
70169;SDS011;57543;45.442;9.212;2023-01-08T06:59:42;58.75;;;21.42;;
70169;SDS011;57543;45.442;9.212;2023-01-08T07:02:45;54.63;;;20.07;;
70169;SDS011;57543;45.442;9.212;2023-01-08T07:05:49;56.67;;;21.13;;
70169;SDS011;57543;45.442;9.212;2023-01-08T07:08:55;58.30;;;22.10;;
70169;SDS011;57543;45.442;9.212;2023-01-08T07:11:59;57.08;;;21.08;;
70169;SDS011;57543;45.442;9.212;2023-01-08T07:15:03;54.97;;;21.23;;
70169;SDS011;57543;45.442;9.212;2023-01-08T07:18:08;54.63;;;20.93;;
70169;SDS011;57543;45.442;9.212;2023-01-08T07:21:13;52.88;;;20.35;;
70169;SDS011;57543;45.442;9.212;2023-01-08T07:24:17;50.72;;;19.42;;
70169;SDS011;57543;45.442;9.212;2023-01-08T07:27:20;52.40;;;19.52;;
70169;SDS011;57543;45.442;9.212;2023-01-08T07:30:24;53.35;;;19.95;;
70169;SDS011;57543;45.442;9.212;2023-01-08T07:33:28;44.57;;;18.80;;
70169;SDS011;57543;45.442;9.212;2023-01-08T07:36:31;53.55;;;20.40;;
70169;SDS011;57543;45.442;9.212;2023-01-08T07:39:35;50.15;;;19.05;;
70169;SDS011;57543;45.442;9.212;2023-01-08T07:42:39;52.63;;;19.08;;
70169;SDS011;57543;45.442;9.212;2023-01-08T07:45:43;51.88;;;19.90;;
70169;SDS011;57543;45.442;9.212;2023-01-08T07:48:49;52.37;;;21.33;;
70169;SDS011;57543;45.442;9.212;2023-01-08T07:51:55;48.47;;;20.00;;
70169;SDS011;57543;45.442;9.212;2023-01-08T07:54:58;51.15;;;19.80;;
70169;SDS011;57543;45.442;9.212;2023-01-08T07:58:05;49.55;;;20.08;;
70169;SDS011;57543;45.442;9.212;2023-01-08T08:01:10;56.97;;;21.52;;
70169;SDS011;57543;45.442;9.212;2023-01-08T08:04:14;54.70;;;20.97;;
70169;SDS011;57543;45.442;9.212;2023-01-08T08:07:18;53.70;;;19.83;;
70169;SDS011;57543;45.442;9.212;2023-01-08T08:10:22;61.33;;;21.25;;
70169;SDS011;57543;45.442;9.212;2023-01-08T08:13:25;57.08;;;21.00;;
70169;SDS011;57543;45.442;9.212;2023-01-08T08:16:29;55.47;;;21.35;;
70169;SDS011;57543;45.442;9.212;2023-01-08T08:19:35;57.37;;;22.03;;
70169;SDS011;57543;45.442;9.212;2023-01-08T08:22:39;52.83;;;20.92;;
70169;SDS011;57543;45.442;9.212;2023-01-08T08:25:43;51.17;;;20.98;;
70169;SDS011;57543;45.442;9.212;2023-01-08T08:28:47;50.50;;;19.75;;
70169;SDS011;57543;45.442;9.212;2023-01-08T08:31:51;50.95;;;20.80;;
70169;SDS011;57543;45.442;9.212;2023-01-08T08:34:55;53.27;;;20.37;;
70169;SDS011;57543;45.442;9.212;2023-01-08T08:37:58;54.78;;;21.30;;
70169;SDS011;57543;45.442;9.212;2023-01-08T08:41:02;51.53;;;20.88;;
70169;SDS011;57543;45.442;9.212;2023-01-08T08:44:06;52.47;;;21.35;;
70169;SDS011;57543;45.442;9.212;2023-01-08T08:47:10;55.50;;;22.25;;
70169;SDS011;57543;45.442;9.212;2023-01-08T08:50:14;51.70;;;20.37;;
70169;SDS011;57543;45.442;9.212;2023-01-08T08:53:18;55.15;;;21.30;;
70169;SDS011;57543;45.442;9.212;2023-01-08T08:56:22;61.63;;;22.83;;
70169;SDS011;57543;45.442;9.212;2023-01-08T08:59:25;53.63;;;21.50;;
70169;SDS011;57543;45.442;9.212;2023-01-08T09:02:29;51.13;;;20.65;;
70169;SDS011;57543;45.442;9.212;2023-01-08T09:05:34;53.60;;;20.90;;
70169;SDS011;57543;45.442;9.212;2023-01-08T09:08:39;60.80;;;22.80;;
70169;SDS011;57543;45.442;9.212;2023-01-08T09:11:42;50.60;;;19.80;;
70169;SDS011;57543;45.442;9.212;2023-01-08T09:14:46;51.90;;;19.95;;
70169;SDS011;57543;45.442;9.212;2023-01-08T09:17:53;44.35;;;19.08;;
70169;SDS011;57543;45.442;9.212;2023-01-08T09:21:01;45.03;;;18.83;;
70169;SDS011;57543;45.442;9.212;2023-01-08T09:24:07;43.20;;;17.33;;
70169;SDS011;57543;45.442;9.212;2023-01-08T09:27:11;42.67;;;17.70;;
70169;SDS011;57543;45.442;9.212;2023-01-08T09:30:16;37.25;;;16.20;;
70169;SDS011;57543;45.442;9.212;2023-01-08T09:33:19;34.05;;;16.02;;
70169;SDS011;57543;45.442;9.212;2023-01-08T09:36:26;36.33;;;16.57;;
70169;SDS011;57543;45.442;9.212;2023-01-08T09:39:30;35.63;;;16.30;;
70169;SDS011;57543;45.442;9.212;2023-01-08T09:42:34;37.92;;;17.45;;
70169;SDS011;57543;45.442;9.212;2023-01-08T09:45:38;41.22;;;17.35;;
70169;SDS011;57543;45.442;9.212;2023-01-08T09:48:42;37.33;;;16.63;;
70169;SDS011;57543;45.442;9.212;2023-01-08T09:51:46;35.17;;;16.10;;
70169;SDS011;57543;45.442;9.212;2023-01-08T09:54:50;34.53;;;16.30;;
70169;SDS011;57543;45.442;9.212;2023-01-08T09:57:53;32.28;;;15.00;;
70169;SDS011;57543;45.442;9.212;2023-01-08T10:00:58;35.55;;;16.98;;
70169;SDS011;57543;45.442;9.212;2023-01-08T10:07:19;33.17;;;15.67;;
70169;SDS011;57543;45.442;9.212;2023-01-08T10:10:25;33.15;;;16.90;;
70169;SDS011;57543;45.442;9.212;2023-01-08T10:13:32;35.42;;;16.67;;
70169;SDS011;57543;45.442;9.212;2023-01-08T10:16:39;30.83;;;15.75;;
70169;SDS011;57543;45.442;9.212;2023-01-08T10:19:44;34.60;;;17.50;;
70169;SDS011;57543;45.442;9.212;2023-01-08T10:22:48;37.57;;;17.10;;
70169;SDS011;57543;45.442;9.212;2023-01-08T10:25:57;31.67;;;15.95;;
70169;SDS011;57543;45.442;9.212;2023-01-08T10:29:14;31.88;;;15.93;;
70169;SDS011;57543;45.442;9.212;2023-01-08T10:32:29;34.22;;;16.08;;
70169;SDS011;57543;45.442;9.212;2023-01-08T10:35:37;32.60;;;16.13;;
70169;SDS011;57543;45.442;9.212;2023-01-08T10:38:50;27.13;;;14.50;;
70169;SDS011;57543;45.442;9.212;2023-01-08T10:42:02;24.25;;;13.30;;
70169;SDS011;57543;45.442;9.212;2023-01-08T10:45:11;27.48;;;13.80;;
70169;SDS011;57543;45.442;9.212;2023-01-08T10:48:32;27.10;;;13.90;;
70169;SDS011;57543;45.442;9.212;2023-01-08T10:51:46;25.63;;;14.10;;
70169;SDS011;57543;45.442;9.212;2023-01-08T10:54:52;25.53;;;13.47;;
70169;SDS011;57543;45.442;9.212;2023-01-08T10:58:00;28.13;;;14.20;;
70169;SDS011;57543;45.442;9.212;2023-01-08T11:01:25;25.42;;;13.38;;
70169;SDS011;57543;45.442;9.212;2023-01-08T11:04:31;24.48;;;13.10;;
70169;SDS011;57543;45.442;9.212;2023-01-08T11:07:37;23.88;;;13.05;;
70169;SDS011;57543;45.442;9.212;2023-01-08T11:10:42;23.30;;;12.93;;
70169;SDS011;57543;45.442;9.212;2023-01-08T11:13:59;25.10;;;12.88;;
70169;SDS011;57543;45.442;9.212;2023-01-08T11:17:07;25.23;;;13.10;;
70169;SDS011;57543;45.442;9.212;2023-01-08T11:20:20;22.98;;;12.25;;
70169;SDS011;57543;45.442;9.212;2023-01-08T11:23:26;21.95;;;12.55;;
70169;SDS011;57543;45.442;9.212;2023-01-08T11:26:30;22.07;;;12.03;;
70169;SDS011;57543;45.442;9.212;2023-01-08T11:32:48;25.13;;;13.65;;
70169;SDS011;57543;45.442;9.212;2023-01-08T11:35:55;22.65;;;11.95;;
70169;SDS011;57543;45.442;9.212;2023-01-08T11:39:07;21.77;;;11.85;;
70169;SDS011;57543;45.442;9.212;2023-01-08T11:45:56;19.10;;;11.57;;
70169;SDS011;57543;45.442;9.212;2023-01-08T11:49:55;19.92;;;11.63;;
70169;SDS011;57543;45.442;9.212;2023-01-08T11:56:30;23.88;;;13.20;;
70169;SDS011;57543;45.442;9.212;2023-01-08T11:59:51;21.50;;;11.87;;
70169;SDS011;57543;45.442;9.212;2023-01-08T12:03:10;20.05;;;10.80;;
70169;SDS011;57543;45.442;9.212;2023-01-08T12:10:00;22.73;;;12.15;;
70169;SDS011;57543;45.442;9.212;2023-01-08T12:13:37;23.40;;;11.98;;
70169;SDS011;57543;45.442;9.212;2023-01-08T12:27:14;20.88;;;11.30;;
70169;SDS011;57543;45.442;9.212;2023-01-08T12:30:55;23.10;;;12.27;;
70169;SDS011;57543;45.442;9.212;2023-01-08T12:34:11;22.77;;;11.37;;
70169;SDS011;57543;45.442;9.212;2023-01-08T12:38:03;22.38;;;12.00;;
70169;SDS011;57543;45.442;9.212;2023-01-08T12:41:08;26.15;;;12.88;;
70169;SDS011;57543;45.442;9.212;2023-01-08T12:44:15;26.08;;;12.23;;
70169;SDS011;57543;45.442;9.212;2023-01-08T12:47:27;21.02;;;11.23;;
70169;SDS011;57543;45.442;9.212;2023-01-08T12:50:42;25.40;;;11.60;;
70169;SDS011;57543;45.442;9.212;2023-01-08T12:57:38;22.85;;;11.68;;
70169;SDS011;57543;45.442;9.212;2023-01-08T13:00:51;24.98;;;11.77;;
70169;SDS011;57543;45.442;9.212;2023-01-08T13:04:14;23.83;;;12.35;;
70169;SDS011;57543;45.442;9.212;2023-01-08T13:07:19;26.17;;;12.17;;
70169;SDS011;57543;45.442;9.212;2023-01-08T13:10:36;20.77;;;10.93;;
70169;SDS011;57543;45.442;9.212;2023-01-08T13:13:42;23.50;;;11.18;;
70169;SDS011;57543;45.442;9.212;2023-01-08T13:16:47;22.85;;;11.52;;
70169;SDS011;57543;45.442;9.212;2023-01-08T13:20:13;22.88;;;12.57;;
70169;SDS011;57543;45.442;9.212;2023-01-08T13:23:26;20.97;;;11.87;;
70169;SDS011;57543;45.442;9.212;2023-01-08T13:26:34;21.60;;;11.18;;
70169;SDS011;57543;45.442;9.212;2023-01-08T13:29:40;20.58;;;10.52;;
70169;SDS011;57543;45.442;9.212;2023-01-08T13:32:45;18.63;;;10.45;;
70169;SDS011;57543;45.442;9.212;2023-01-08T13:35:50;24.95;;;12.57;;
70169;SDS011;57543;45.442;9.212;2023-01-08T13:42:22;27.70;;;14.70;;
70169;SDS011;57543;45.442;9.212;2023-01-08T13:45:30;24.30;;;12.85;;
70169;SDS011;57543;45.442;9.212;2023-01-08T13:48:39;30.52;;;15.63;;
70169;SDS011;57543;45.442;9.212;2023-01-08T13:51:51;27.15;;;14.55;;
70169;SDS011;57543;45.442;9.212;2023-01-08T13:54:56;23.43;;;12.50;;
70169;SDS011;57543;45.442;9.212;2023-01-08T13:58:14;21.58;;;11.02;;
70169;SDS011;57543;45.442;9.212;2023-01-08T14:01:23;19.35;;;11.07;;
70169;SDS011;57543;45.442;9.212;2023-01-08T14:04:27;20.70;;;10.57;;
70169;SDS011;57543;45.442;9.212;2023-01-08T14:07:30;18.05;;;10.10;;
70169;SDS011;57543;45.442;9.212;2023-01-08T14:10:34;19.17;;;10.07;;
70169;SDS011;57543;45.442;9.212;2023-01-08T14:13:38;16.63;;;9.27;;
70169;SDS011;57543;45.442;9.212;2023-01-08T14:16:42;18.73;;;10.73;;
70169;SDS011;57543;45.442;9.212;2023-01-08T14:19:47;18.92;;;9.25;;
70169;SDS011;57543;45.442;9.212;2023-01-08T14:22:51;16.70;;;9.30;;
70169;SDS011;57543;45.442;9.212;2023-01-08T14:25:55;14.83;;;8.43;;
70169;SDS011;57543;45.442;9.212;2023-01-08T14:29:03;15.48;;;8.55;;
70169;SDS011;57543;45.442;9.212;2023-01-08T14:32:22;14.50;;;8.05;;
70169;SDS011;57543;45.442;9.212;2023-01-08T14:35:30;13.50;;;7.95;;
70169;SDS011;57543;45.442;9.212;2023-01-08T14:38:35;13.15;;;7.50;;
70169;SDS011;57543;45.442;9.212;2023-01-08T14:41:39;11.97;;;6.97;;
70169;SDS011;57543;45.442;9.212;2023-01-08T14:45:25;11.75;;;7.28;;
70169;SDS011;57543;45.442;9.212;2023-01-08T14:48:34;11.32;;;6.93;;
70169;SDS011;57543;45.442;9.212;2023-01-08T14:51:45;10.80;;;6.60;;
70169;SDS011;57543;45.442;9.212;2023-01-08T14:54:50;11.63;;;6.22;;
70169;SDS011;57543;45.442;9.212;2023-01-08T14:57:56;10.73;;;6.30;;
70169;SDS011;57543;45.442;9.212;2023-01-08T15:01:02;10.50;;;6.28;;
70169;SDS011;57543;45.442;9.212;2023-01-08T15:04:13;10.70;;;6.20;;
70169;SDS011;57543;45.442;9.212;2023-01-08T15:07:21;11.82;;;6.75;;
70169;SDS011;57543;45.442;9.212;2023-01-08T15:10:33;11.40;;;6.53;;
70169;SDS011;57543;45.442;9.212;2023-01-08T15:13:41;11.63;;;6.20;;
70169;SDS011;57543;45.442;9.212;2023-01-08T15:16:45;9.85;;;5.82;;
70169;SDS011;57543;45.442;9.212;2023-01-08T15:19:50;11.38;;;6.53;;
70169;SDS011;57543;45.442;9.212;2023-01-08T15:22:57;8.98;;;5.65;;
70169;SDS011;57543;45.442;9.212;2023-01-08T15:26:01;9.65;;;5.85;;
70169;SDS011;57543;45.442;9.212;2023-01-08T15:29:05;9.80;;;5.60;;
70169;SDS011;57543;45.442;9.212;2023-01-08T15:32:09;10.25;;;5.90;;
70169;SDS011;57543;45.442;9.212;2023-01-08T15:35:21;10.75;;;5.65;;
70169;SDS011;57543;45.442;9.212;2023-01-08T15:38:28;10.73;;;5.97;;
70169;SDS011;57543;45.442;9.212;2023-01-08T15:41:33;10.88;;;6.13;;
70169;SDS011;57543;45.442;9.212;2023-01-08T15:44:56;10.23;;;5.93;;
70169;SDS011;57543;45.442;9.212;2023-01-08T15:48:00;10.43;;;6.00;;
70169;SDS011;57543;45.442;9.212;2023-01-08T15:51:04;10.60;;;5.57;;
70169;SDS011;57543;45.442;9.212;2023-01-08T15:54:08;10.45;;;5.72;;
70169;SDS011;57543;45.442;9.212;2023-01-08T15:57:14;10.38;;;6.05;;
70169;SDS011;57543;45.442;9.212;2023-01-08T16:00:18;10.93;;;6.03;;
70169;SDS011;57543;45.442;9.212;2023-01-08T16:03:24;11.88;;;6.68;;
70169;SDS011;57543;45.442;9.212;2023-01-08T16:06:28;11.35;;;7.00;;
70169;SDS011;57543;45.442;9.212;2023-01-08T16:09:32;11.10;;;6.45;;
70169;SDS011;57543;45.442;9.212;2023-01-08T16:12:35;10.70;;;6.65;;
70169;SDS011;57543;45.442;9.212;2023-01-08T16:15:39;11.27;;;6.33;;
70169;SDS011;57543;45.442;9.212;2023-01-08T16:18:43;10.18;;;6.13;;
70169;SDS011;57543;45.442;9.212;2023-01-08T16:21:47;9.82;;;6.25;;
70169;SDS011;57543;45.442;9.212;2023-01-08T16:24:54;11.18;;;6.30;;
70169;SDS011;57543;45.442;9.212;2023-01-08T16:28:01;10.60;;;6.43;;
70169;SDS011;57543;45.442;9.212;2023-01-08T16:31:06;13.27;;;7.37;;
70169;SDS011;57543;45.442;9.212;2023-01-08T16:34:11;12.05;;;6.88;;
70169;SDS011;57543;45.442;9.212;2023-01-08T16:37:15;12.80;;;6.85;;
70169;SDS011;57543;45.442;9.212;2023-01-08T16:40:19;12.15;;;6.93;;
70169;SDS011;57543;45.442;9.212;2023-01-08T16:43:23;10.85;;;6.38;;
70169;SDS011;57543;45.442;9.212;2023-01-08T16:46:28;10.50;;;6.00;;
70169;SDS011;57543;45.442;9.212;2023-01-08T16:49:32;13.27;;;7.60;;
70169;SDS011;57543;45.442;9.212;2023-01-08T16:52:38;12.20;;;7.70;;
70169;SDS011;57543;45.442;9.212;2023-01-08T16:55:42;13.07;;;7.70;;
70169;SDS011;57543;45.442;9.212;2023-01-08T16:58:48;12.80;;;8.85;;
70169;SDS011;57543;45.442;9.212;2023-01-08T17:01:52;12.17;;;8.43;;
70169;SDS011;57543;45.442;9.212;2023-01-08T17:04:57;13.57;;;8.30;;
70169;SDS011;57543;45.442;9.212;2023-01-08T17:08:03;13.73;;;7.78;;
70169;SDS011;57543;45.442;9.212;2023-01-08T17:11:14;14.65;;;9.00;;
70169;SDS011;57543;45.442;9.212;2023-01-08T17:14:19;12.93;;;8.23;;
70169;SDS011;57543;45.442;9.212;2023-01-08T17:17:24;11.17;;;7.07;;
70169;SDS011;57543;45.442;9.212;2023-01-08T17:20:30;12.98;;;7.75;;
70169;SDS011;57543;45.442;9.212;2023-01-08T17:23:34;13.25;;;7.30;;
70169;SDS011;57543;45.442;9.212;2023-01-08T17:26:40;12.77;;;7.47;;
70169;SDS011;57543;45.442;9.212;2023-01-08T17:29:44;14.38;;;7.72;;
70169;SDS011;57543;45.442;9.212;2023-01-08T17:32:48;12.60;;;7.67;;
70169;SDS011;57543;45.442;9.212;2023-01-08T17:35:52;13.55;;;8.75;;
70169;SDS011;57543;45.442;9.212;2023-01-08T17:38:55;12.75;;;7.55;;
70169;SDS011;57543;45.442;9.212;2023-01-08T17:41:59;11.52;;;7.40;;
70169;SDS011;57543;45.442;9.212;2023-01-08T17:45:21;10.95;;;6.82;;
70169;SDS011;57543;45.442;9.212;2023-01-08T17:48:25;11.23;;;6.97;;
70169;SDS011;57543;45.442;9.212;2023-01-08T17:51:28;11.00;;;7.28;;
70169;SDS011;57543;45.442;9.212;2023-01-08T17:54:34;11.27;;;6.72;;
70169;SDS011;57543;45.442;9.212;2023-01-08T17:57:38;10.27;;;6.70;;
70169;SDS011;57543;45.442;9.212;2023-01-08T18:00:41;11.45;;;7.00;;
70169;SDS011;57543;45.442;9.212;2023-01-08T18:03:44;10.60;;;6.53;;
70169;SDS011;57543;45.442;9.212;2023-01-08T18:06:48;11.25;;;7.13;;
70169;SDS011;57543;45.442;9.212;2023-01-08T18:09:52;11.23;;;7.43;;
70169;SDS011;57543;45.442;9.212;2023-01-08T18:12:56;11.48;;;6.68;;
70169;SDS011;57543;45.442;9.212;2023-01-08T18:16:00;12.45;;;7.70;;
70169;SDS011;57543;45.442;9.212;2023-01-08T18:19:08;10.50;;;6.80;;
70169;SDS011;57543;45.442;9.212;2023-01-08T18:22:12;10.45;;;6.90;;
70169;SDS011;57543;45.442;9.212;2023-01-08T18:25:16;13.15;;;7.47;;
70169;SDS011;57543;45.442;9.212;2023-01-08T18:28:19;12.05;;;7.68;;
70169;SDS011;57543;45.442;9.212;2023-01-08T18:31:23;13.88;;;7.82;;
70169;SDS011;57543;45.442;9.212;2023-01-08T18:34:27;12.23;;;6.87;;
70169;SDS011;57543;45.442;9.212;2023-01-08T18:37:31;12.80;;;7.43;;
70169;SDS011;57543;45.442;9.212;2023-01-08T18:40:35;12.40;;;7.82;;
70169;SDS011;57543;45.442;9.212;2023-01-08T18:43:38;12.85;;;7.50;;
70169;SDS011;57543;45.442;9.212;2023-01-08T18:46:42;13.82;;;8.20;;
70169;SDS011;57543;45.442;9.212;2023-01-08T18:49:46;13.43;;;7.70;;
70169;SDS011;57543;45.442;9.212;2023-01-08T18:52:49;13.55;;;8.25;;
70169;SDS011;57543;45.442;9.212;2023-01-08T18:55:52;12.45;;;7.65;;